CSY3 weather

Public forecast

Using degrees Celsius for public forecast. Weather courtesy of forecast.io.

Closest aviation weather report (METAR) to Sorel Airport

Closest report is Trois-Rivières Airport, 27.0 nm (50.0 km) NE. Retrieved 2020/08/09 02:00 UTC (19 minutes ago):

CYRQ 090200Z AUTO 22003KT 9SM CLR 18/16 A3004 RMK SLP175 DENSITY ALT 400FT

Closest aviation forecast (TAF) to Sorel Airport

Closest forecast is Trois-Rivières Airport, 27.0 nm (50.0 km) NE. Retrieved 2020-08-09 02:00 UTC (19 minutes ago):

TAF CYRQ 090138Z 0902/0914 VRB03KT P6SM SCT250 FM090600 VRB03KT P6SM BKN060 BKN240 BECMG 0908/0910 21006KT RMK FCST BASED ON AUTO OBS NXT FCST BY 090800Z